sensor_id;sensor_type;location;lat;lon;timestamp;P1;durP1;ratioP1;P2;durP2;ratioP2
52456;SDS011;38369;52.840;7.082;2023-07-13T00:02:14;7.78;;;2.60;;
52456;SDS011;38369;52.840;7.082;2023-07-13T00:04:40;5.88;;;2.00;;
52456;SDS011;38369;52.840;7.082;2023-07-13T00:07:07;7.45;;;2.58;;
52456;SDS011;38369;52.840;7.082;2023-07-13T00:09:33;10.93;;;2.53;;
52456;SDS011;38369;52.840;7.082;2023-07-13T00:11:59;11.50;;;3.13;;
52456;SDS011;38369;52.840;7.082;2023-07-13T00:14:25;7.15;;;2.30;;
52456;SDS011;38369;52.840;7.082;2023-07-13T00:16:52;6.70;;;2.65;;
52456;SDS011;38369;52.840;7.082;2023-07-13T00:19:18;8.50;;;2.40;;
52456;SDS011;38369;52.840;7.082;2023-07-13T00:21:44;7.07;;;2.80;;
52456;SDS011;38369;52.840;7.082;2023-07-13T00:24:14;9.50;;;2.75;;
52456;SDS011;38369;52.840;7.082;2023-07-13T00:26:40;10.20;;;3.47;;
52456;SDS011;38369;52.840;7.082;2023-07-13T00:29:11;9.95;;;2.83;;
52456;SDS011;38369;52.840;7.082;2023-07-13T00:31:37;7.82;;;2.60;;
52456;SDS011;38369;52.840;7.082;2023-07-13T00:34:03;6.20;;;3.65;;
52456;SDS011;38369;52.840;7.082;2023-07-13T00:36:30;8.15;;;2.83;;
52456;SDS011;38369;52.840;7.082;2023-07-13T00:38:56;8.07;;;3.22;;
52456;SDS011;38369;52.840;7.082;2023-07-13T00:41:22;7.18;;;2.85;;
52456;SDS011;38369;52.840;7.082;2023-07-13T00:43:48;8.57;;;3.08;;
52456;SDS011;38369;52.840;7.082;2023-07-13T00:48:43;11.63;;;3.15;;
52456;SDS011;38369;52.840;7.082;2023-07-13T00:51:10;9.38;;;2.90;;
52456;SDS011;38369;52.840;7.082;2023-07-13T00:53:37;9.23;;;3.63;;
52456;SDS011;38369;52.840;7.082;2023-07-13T00:56:04;6.85;;;3.20;;
52456;SDS011;38369;52.840;7.082;2023-07-13T00:58:30;8.77;;;2.90;;
52456;SDS011;38369;52.840;7.082;2023-07-13T01:00:56;14.98;;;4.20;;
52456;SDS011;38369;52.840;7.082;2023-07-13T01:03:22;10.93;;;3.22;;
52456;SDS011;38369;52.840;7.082;2023-07-13T01:05:48;7.05;;;2.92;;
52456;SDS011;38369;52.840;7.082;2023-07-13T01:08:15;10.32;;;3.30;;
52456;SDS011;38369;52.840;7.082;2023-07-13T01:10:50;14.55;;;3.40;;
52456;SDS011;38369;52.840;7.082;2023-07-13T01:13:16;16.25;;;3.80;;
52456;SDS011;38369;52.840;7.082;2023-07-13T01:15:43;11.57;;;3.45;;
52456;SDS011;38369;52.840;7.082;2023-07-13T01:18:11;9.55;;;3.17;;
52456;SDS011;38369;52.840;7.082;2023-07-13T01:20:38;11.40;;;3.50;;
52456;SDS011;38369;52.840;7.082;2023-07-13T01:23:05;9.35;;;3.33;;
52456;SDS011;38369;52.840;7.082;2023-07-13T01:25:31;9.55;;;3.13;;
52456;SDS011;38369;52.840;7.082;2023-07-13T01:27:57;10.30;;;3.28;;
52456;SDS011;38369;52.840;7.082;2023-07-13T01:30:23;11.35;;;3.53;;
52456;SDS011;38369;52.840;7.082;2023-07-13T01:32:49;10.48;;;4.50;;
52456;SDS011;38369;52.840;7.082;2023-07-13T01:35:16;6.18;;;2.88;;
52456;SDS011;38369;52.840;7.082;2023-07-13T01:37:42;11.38;;;3.38;;
52456;SDS011;38369;52.840;7.082;2023-07-13T01:40:10;8.60;;;3.88;;
52456;SDS011;38369;52.840;7.082;2023-07-13T01:42:37;10.43;;;3.47;;
52456;SDS011;38369;52.840;7.082;2023-07-13T01:45:03;10.00;;;3.08;;
52456;SDS011;38369;52.840;7.082;2023-07-13T01:47:29;9.68;;;3.35;;
52456;SDS011;38369;52.840;7.082;2023-07-13T01:49:56;10.93;;;2.90;;
52456;SDS011;38369;52.840;7.082;2023-07-13T01:52:22;12.10;;;3.28;;
52456;SDS011;38369;52.840;7.082;2023-07-13T01:54:48;12.60;;;4.03;;
52456;SDS011;38369;52.840;7.082;2023-07-13T01:57:14;6.80;;;2.53;;
52456;SDS011;38369;52.840;7.082;2023-07-13T01:59:40;14.48;;;3.58;;
52456;SDS011;38369;52.840;7.082;2023-07-13T02:02:06;11.93;;;3.17;;
52456;SDS011;38369;52.840;7.082;2023-07-13T02:04:33;10.73;;;3.30;;
52456;SDS011;38369;52.840;7.082;2023-07-13T02:06:59;11.98;;;3.47;;
52456;SDS011;38369;52.840;7.082;2023-07-13T02:09:25;17.08;;;3.70;;
52456;SDS011;38369;52.840;7.082;2023-07-13T02:11:52;14.77;;;3.88;;
52456;SDS011;38369;52.840;7.082;2023-07-13T02:14:18;9.70;;;3.13;;
52456;SDS011;38369;52.840;7.082;2023-07-13T02:16:44;11.05;;;3.42;;
52456;SDS011;38369;52.840;7.082;2023-07-13T02:19:10;7.07;;;3.22;;
52456;SDS011;38369;52.840;7.082;2023-07-13T02:21:36;11.48;;;3.70;;
52456;SDS011;38369;52.840;7.082;2023-07-13T02:24:02;9.77;;;3.30;;
52456;SDS011;38369;52.840;7.082;2023-07-13T02:26:28;15.43;;;3.60;;
52456;SDS011;38369;52.840;7.082;2023-07-13T02:28:54;10.05;;;3.42;;
52456;SDS011;38369;52.840;7.082;2023-07-13T02:31:20;11.15;;;3.67;;
52456;SDS011;38369;52.840;7.082;2023-07-13T02:33:46;11.98;;;3.17;;
52456;SDS011;38369;52.840;7.082;2023-07-13T02:36:12;9.57;;;3.33;;
52456;SDS011;38369;52.840;7.082;2023-07-13T02:38:42;11.30;;;3.33;;
52456;SDS011;38369;52.840;7.082;2023-07-13T02:41:08;15.52;;;3.45;;
52456;SDS011;38369;52.840;7.082;2023-07-13T02:43:34;14.95;;;3.67;;
52456;SDS011;38369;52.840;7.082;2023-07-13T02:46:01;11.00;;;3.80;;
52456;SDS011;38369;52.840;7.082;2023-07-13T02:48:35;10.82;;;3.60;;
52456;SDS011;38369;52.840;7.082;2023-07-13T02:51:02;11.15;;;3.47;;
52456;SDS011;38369;52.840;7.082;2023-07-13T02:53:28;13.38;;;4.40;;
52456;SDS011;38369;52.840;7.082;2023-07-13T02:55:54;15.05;;;4.22;;
52456;SDS011;38369;52.840;7.082;2023-07-13T02:58:20;15.55;;;4.10;;
52456;SDS011;38369;52.840;7.082;2023-07-13T03:00:46;9.07;;;3.38;;
52456;SDS011;38369;52.840;7.082;2023-07-13T03:03:13;10.82;;;3.88;;
52456;SDS011;38369;52.840;7.082;2023-07-13T03:05:40;11.18;;;3.28;;
52456;SDS011;38369;52.840;7.082;2023-07-13T03:08:10;12.95;;;3.33;;
52456;SDS011;38369;52.840;7.082;2023-07-13T03:10:36;16.10;;;4.03;;
52456;SDS011;38369;52.840;7.082;2023-07-13T03:13:02;10.85;;;3.53;;
52456;SDS011;38369;52.840;7.082;2023-07-13T03:15:28;10.93;;;3.45;;
52456;SDS011;38369;52.840;7.082;2023-07-13T03:17:54;16.92;;;3.75;;
52456;SDS011;38369;52.840;7.082;2023-07-13T03:20:20;11.88;;;3.70;;
52456;SDS011;38369;52.840;7.082;2023-07-13T03:22:46;12.80;;;3.50;;
52456;SDS011;38369;52.840;7.082;2023-07-13T03:25:12;8.68;;;3.13;;
52456;SDS011;38369;52.840;7.082;2023-07-13T03:27:38;8.32;;;2.90;;
52456;SDS011;38369;52.840;7.082;2023-07-13T03:30:05;13.75;;;3.20;;
52456;SDS011;38369;52.840;7.082;2023-07-13T03:32:31;9.75;;;3.00;;
52456;SDS011;38369;52.840;7.082;2023-07-13T03:34:57;10.15;;;3.45;;
52456;SDS011;38369;52.840;7.082;2023-07-13T03:37:24;15.95;;;4.10;;
52456;SDS011;38369;52.840;7.082;2023-07-13T03:39:50;14.43;;;3.92;;
52456;SDS011;38369;52.840;7.082;2023-07-13T03:42:16;8.23;;;3.00;;
52456;SDS011;38369;52.840;7.082;2023-07-13T03:44:42;12.20;;;3.20;;
52456;SDS011;38369;52.840;7.082;2023-07-13T03:47:15;13.20;;;3.38;;
52456;SDS011;38369;52.840;7.082;2023-07-13T03:49:41;10.30;;;3.50;;
52456;SDS011;38369;52.840;7.082;2023-07-13T03:52:07;16.38;;;4.55;;
52456;SDS011;38369;52.840;7.082;2023-07-13T03:54:33;11.57;;;3.58;;
52456;SDS011;38369;52.840;7.082;2023-07-13T03:56:59;8.82;;;3.30;;
52456;SDS011;38369;52.840;7.082;2023-07-13T03:59:25;13.68;;;4.43;;
52456;SDS011;38369;52.840;7.082;2023-07-13T04:01:52;6.70;;;3.08;;
52456;SDS011;38369;52.840;7.082;2023-07-13T04:04:18;11.52;;;4.03;;
52456;SDS011;38369;52.840;7.082;2023-07-13T04:06:45;12.48;;;4.25;;
52456;SDS011;38369;52.840;7.082;2023-07-13T04:09:12;11.93;;;4.10;;
52456;SDS011;38369;52.840;7.082;2023-07-13T04:11:38;7.53;;;3.13;;
52456;SDS011;38369;52.840;7.082;2023-07-13T04:14:04;12.45;;;3.40;;
52456;SDS011;38369;52.840;7.082;2023-07-13T04:16:30;14.75;;;3.90;;
52456;SDS011;38369;52.840;7.082;2023-07-13T04:18:56;11.52;;;4.18;;
52456;SDS011;38369;52.840;7.082;2023-07-13T04:21:26;13.37;;;4.17;;
52456;SDS011;38369;52.840;7.082;2023-07-13T04:23:53;10.35;;;3.80;;
52456;SDS011;38369;52.840;7.082;2023-07-13T04:26:19;7.30;;;2.97;;
52456;SDS011;38369;52.840;7.082;2023-07-13T04:28:48;14.47;;;3.80;;
52456;SDS011;38369;52.840;7.082;2023-07-13T04:31:14;11.65;;;3.83;;
52456;SDS011;38369;52.840;7.082;2023-07-13T04:33:40;10.95;;;3.75;;
52456;SDS011;38369;52.840;7.082;2023-07-13T04:36:08;12.38;;;3.67;;
52456;SDS011;38369;52.840;7.082;2023-07-13T04:38:35;11.73;;;3.47;;
52456;SDS011;38369;52.840;7.082;2023-07-13T04:41:02;13.82;;;4.75;;
52456;SDS011;38369;52.840;7.082;2023-07-13T04:43:29;8.48;;;3.67;;
52456;SDS011;38369;52.840;7.082;2023-07-13T04:45:55;12.32;;;4.35;;
52456;SDS011;38369;52.840;7.082;2023-07-13T04:48:22;14.57;;;3.97;;
52456;SDS011;38369;52.840;7.082;2023-07-13T04:50:53;13.65;;;4.72;;
52456;SDS011;38369;52.840;7.082;2023-07-13T04:53:19;11.77;;;4.32;;
52456;SDS011;38369;52.840;7.082;2023-07-13T04:55:45;10.02;;;3.95;;
52456;SDS011;38369;52.840;7.082;2023-07-13T04:58:12;16.13;;;5.18;;
52456;SDS011;38369;52.840;7.082;2023-07-13T05:00:38;12.52;;;4.45;;
52456;SDS011;38369;52.840;7.082;2023-07-13T05:03:04;19.17;;;4.85;;
52456;SDS011;38369;52.840;7.082;2023-07-13T05:05:30;11.45;;;4.32;;
52456;SDS011;38369;52.840;7.082;2023-07-13T05:07:57;12.15;;;3.80;;
52456;SDS011;38369;52.840;7.082;2023-07-13T05:10:23;12.82;;;4.38;;
52456;SDS011;38369;52.840;7.082;2023-07-13T05:12:49;15.23;;;4.53;;
52456;SDS011;38369;52.840;7.082;2023-07-13T05:15:15;13.48;;;4.22;;
52456;SDS011;38369;52.840;7.082;2023-07-13T05:17:46;14.85;;;5.00;;
52456;SDS011;38369;52.840;7.082;2023-07-13T05:20:12;9.15;;;4.20;;
52456;SDS011;38369;52.840;7.082;2023-07-13T05:22:38;15.43;;;4.72;;
52456;SDS011;38369;52.840;7.082;2023-07-13T05:25:04;19.05;;;6.00;;
52456;SDS011;38369;52.840;7.082;2023-07-13T05:27:31;11.15;;;4.70;;
52456;SDS011;38369;52.840;7.082;2023-07-13T05:29:57;14.55;;;5.13;;
52456;SDS011;38369;52.840;7.082;2023-07-13T05:32:23;11.68;;;4.65;;
52456;SDS011;38369;52.840;7.082;2023-07-13T05:34:49;11.52;;;4.57;;
52456;SDS011;38369;52.840;7.082;2023-07-13T05:37:15;18.35;;;5.15;;
52456;SDS011;38369;52.840;7.082;2023-07-13T05:39:41;11.90;;;5.10;;
52456;SDS011;38369;52.840;7.082;2023-07-13T05:42:07;12.60;;;4.20;;
52456;SDS011;38369;52.840;7.082;2023-07-13T05:44:33;16.55;;;5.05;;
52456;SDS011;38369;52.840;7.082;2023-07-13T05:46:59;14.40;;;5.78;;
52456;SDS011;38369;52.840;7.082;2023-07-13T05:49:25;15.38;;;5.30;;
52456;SDS011;38369;52.840;7.082;2023-07-13T05:51:51;12.32;;;5.47;;
52456;SDS011;38369;52.840;7.082;2023-07-13T05:54:17;12.95;;;5.00;;
52456;SDS011;38369;52.840;7.082;2023-07-13T05:56:44;14.38;;;5.05;;
52456;SDS011;38369;52.840;7.082;2023-07-13T05:59:10;12.32;;;4.40;;
52456;SDS011;38369;52.840;7.082;2023-07-13T06:01:36;13.73;;;4.95;;
52456;SDS011;38369;52.840;7.082;2023-07-13T06:04:02;13.57;;;5.15;;
52456;SDS011;38369;52.840;7.082;2023-07-13T06:06:28;13.05;;;5.55;;
52456;SDS011;38369;52.840;7.082;2023-07-13T06:08:54;15.55;;;5.82;;
52456;SDS011;38369;52.840;7.082;2023-07-13T06:11:21;19.10;;;5.85;;
52456;SDS011;38369;52.840;7.082;2023-07-13T06:13:48;14.05;;;5.45;;
52456;SDS011;38369;52.840;7.082;2023-07-13T06:16:14;12.02;;;5.03;;
52456;SDS011;38369;52.840;7.082;2023-07-13T06:18:41;16.30;;;5.38;;
52456;SDS011;38369;52.840;7.082;2023-07-13T06:21:08;8.80;;;4.90;;
52456;SDS011;38369;52.840;7.082;2023-07-13T06:23:35;11.88;;;4.70;;
52456;SDS011;38369;52.840;7.082;2023-07-13T06:26:02;15.20;;;4.75;;
52456;SDS011;38369;52.840;7.082;2023-07-13T06:28:28;11.30;;;4.45;;
52456;SDS011;38369;52.840;7.082;2023-07-13T06:30:55;15.48;;;5.22;;
52456;SDS011;38369;52.840;7.082;2023-07-13T06:33:21;13.57;;;4.57;;
52456;SDS011;38369;52.840;7.082;2023-07-13T06:35:47;12.32;;;4.95;;
52456;SDS011;38369;52.840;7.082;2023-07-13T06:38:13;10.13;;;5.07;;
52456;SDS011;38369;52.840;7.082;2023-07-13T06:40:39;14.23;;;4.90;;
52456;SDS011;38369;52.840;7.082;2023-07-13T06:43:05;13.73;;;5.20;;
52456;SDS011;38369;52.840;7.082;2023-07-13T06:45:32;11.05;;;4.65;;
52456;SDS011;38369;52.840;7.082;2023-07-13T06:47:59;14.77;;;5.40;;
52456;SDS011;38369;52.840;7.082;2023-07-13T06:50:25;13.55;;;5.25;;
52456;SDS011;38369;52.840;7.082;2023-07-13T06:52:51;15.05;;;5.18;;
52456;SDS011;38369;52.840;7.082;2023-07-13T06:55:17;16.63;;;6.18;;
52456;SDS011;38369;52.840;7.082;2023-07-13T06:57:44;15.55;;;5.97;;
52456;SDS011;38369;52.840;7.082;2023-07-13T07:00:10;12.05;;;4.90;;
52456;SDS011;38369;52.840;7.082;2023-07-13T07:02:36;12.50;;;5.05;;
52456;SDS011;38369;52.840;7.082;2023-07-13T07:05:02;12.02;;;5.50;;
52456;SDS011;38369;52.840;7.082;2023-07-13T07:07:28;9.13;;;4.75;;
52456;SDS011;38369;52.840;7.082;2023-07-13T07:09:54;10.48;;;5.10;;
52456;SDS011;38369;52.840;7.082;2023-07-13T07:12:20;18.45;;;5.45;;
52456;SDS011;38369;52.840;7.082;2023-07-13T07:14:46;15.35;;;5.93;;
52456;SDS011;38369;52.840;7.082;2023-07-13T07:17:12;11.38;;;4.95;;
52456;SDS011;38369;52.840;7.082;2023-07-13T07:19:38;14.30;;;5.30;;
52456;SDS011;38369;52.840;7.082;2023-07-13T07:22:05;14.75;;;5.60;;
52456;SDS011;38369;52.840;7.082;2023-07-13T07:24:31;9.73;;;4.40;;
52456;SDS011;38369;52.840;7.082;2023-07-13T07:26:57;8.70;;;4.25;;
52456;SDS011;38369;52.840;7.082;2023-07-13T07:29:23;9.63;;;4.10;;
52456;SDS011;38369;52.840;7.082;2023-07-13T07:31:51;8.55;;;4.72;;
52456;SDS011;38369;52.840;7.082;2023-07-13T07:34:18;12.13;;;4.70;;
52456;SDS011;38369;52.840;7.082;2023-07-13T07:36:44;11.57;;;5.03;;
52456;SDS011;38369;52.840;7.082;2023-07-13T07:39:10;11.88;;;4.93;;
52456;SDS011;38369;52.840;7.082;2023-07-13T07:41:36;8.50;;;4.25;;
52456;SDS011;38369;52.840;7.082;2023-07-13T07:44:02;13.43;;;5.03;;
52456;SDS011;38369;52.840;7.082;2023-07-13T07:46:29;13.15;;;4.72;;
52456;SDS011;38369;52.840;7.082;2023-07-13T07:48:55;13.13;;;4.85;;
52456;SDS011;38369;52.840;7.082;2023-07-13T07:51:21;6.05;;;3.55;;
52456;SDS011;38369;52.840;7.082;2023-07-13T07:53:48;16.15;;;4.88;;
52456;SDS011;38369;52.840;7.082;2023-07-13T07:56:14;14.88;;;4.90;;
52456;SDS011;38369;52.840;7.082;2023-07-13T07:58:41;8.38;;;4.25;;
52456;SDS011;38369;52.840;7.082;2023-07-13T08:01:08;8.00;;;3.95;;
52456;SDS011;38369;52.840;7.082;2023-07-13T08:03:34;10.23;;;4.28;;
52456;SDS011;38369;52.840;7.082;2023-07-13T08:06:00;12.15;;;4.32;;
52456;SDS011;38369;52.840;7.082;2023-07-13T08:08:26;9.15;;;4.10;;
52456;SDS011;38369;52.840;7.082;2023-07-13T08:10:52;9.88;;;4.38;;
52456;SDS011;38369;52.840;7.082;2023-07-13T08:13:18;7.50;;;3.60;;
52456;SDS011;38369;52.840;7.082;2023-07-13T08:15:45;10.25;;;3.95;;
52456;SDS011;38369;52.840;7.082;2023-07-13T08:18:12;14.00;;;4.07;;
52456;SDS011;38369;52.840;7.082;2023-07-13T08:20:38;11.30;;;5.43;;
52456;SDS011;38369;52.840;7.082;2023-07-13T08:23:05;9.30;;;5.10;;
52456;SDS011;38369;52.840;7.082;2023-07-13T08:25:31;12.00;;;4.20;;
52456;SDS011;38369;52.840;7.082;2023-07-13T08:27:57;10.95;;;4.60;;
52456;SDS011;38369;52.840;7.082;2023-07-13T08:30:23;11.45;;;4.10;;
52456;SDS011;38369;52.840;7.082;2023-07-13T08:32:49;10.25;;;4.60;;
52456;SDS011;38369;52.840;7.082;2023-07-13T08:35:15;11.90;;;4.93;;
52456;SDS011;38369;52.840;7.082;2023-07-13T08:37:42;12.27;;;5.68;;
52456;SDS011;38369;52.840;7.082;2023-07-13T08:40:08;12.13;;;4.30;;
52456;SDS011;38369;52.840;7.082;2023-07-13T08:42:45;13.10;;;4.60;;
52456;SDS011;38369;52.840;7.082;2023-07-13T08:47:39;13.55;;;4.68;;
52456;SDS011;38369;52.840;7.082;2023-07-13T08:50:09;10.88;;;5.13;;
52456;SDS011;38369;52.840;7.082;2023-07-13T08:52:38;12.48;;;5.40;;
52456;SDS011;38369;52.840;7.082;2023-07-13T08:55:27;15.20;;;4.47;;
52456;SDS011;38369;52.840;7.082;2023-07-13T08:58:05;14.60;;;5.35;;
52456;SDS011;38369;52.840;7.082;2023-07-13T09:00:42;11.18;;;5.07;;
52456;SDS011;38369;52.840;7.082;2023-07-13T09:03:18;10.20;;;4.47;;
52456;SDS011;38369;52.840;7.082;2023-07-13T09:05:46;12.35;;;5.43;;
52456;SDS011;38369;52.840;7.082;2023-07-13T09:11:46;13.77;;;6.15;;
52456;SDS011;38369;52.840;7.082;2023-07-13T09:13:50;10.98;;;5.30;;
52456;SDS011;38369;52.840;7.082;2023-07-13T09:16:18;10.20;;;4.68;;
52456;SDS011;38369;52.840;7.082;2023-07-13T09:18:46;14.10;;;6.88;;
52456;SDS011;38369;52.840;7.082;2023-07-13T09:21:16;13.07;;;5.20;;
52456;SDS011;38369;52.840;7.082;2023-07-13T09:23:43;8.70;;;5.13;;
52456;SDS011;38369;52.840;7.082;2023-07-13T09:26:14;11.68;;;5.75;;
52456;SDS011;38369;52.840;7.082;2023-07-13T09:28:41;14.75;;;5.07;;
52456;SDS011;38369;52.840;7.082;2023-07-13T09:31:13;12.10;;;4.72;;
52456;SDS011;38369;52.840;7.082;2023-07-13T09:33:40;11.07;;;2.88;;
52456;SDS011;38369;52.840;7.082;2023-07-13T09:36:16;15.95;;;2.67;;
52456;SDS011;38369;52.840;7.082;2023-07-13T09:38:43;13.50;;;3.63;;
52456;SDS011;38369;52.840;7.082;2023-07-13T09:46:34;5.95;;;1.80;;
52456;SDS011;38369;52.840;7.082;2023-07-13T09:49:00;5.88;;;2.55;;
52456;SDS011;38369;52.840;7.082;2023-07-13T09:51:26;5.35;;;1.88;;
52456;SDS011;38369;52.840;7.082;2023-07-13T09:53:53;3.35;;;2.05;;
52456;SDS011;38369;52.840;7.082;2023-07-13T09:56:23;5.43;;;2.40;;
52456;SDS011;38369;52.840;7.082;2023-07-13T09:58:50;4.18;;;1.92;;
52456;SDS011;38369;52.840;7.082;2023-07-13T10:01:17;4.40;;;1.80;;
52456;SDS011;38369;52.840;7.082;2023-07-13T10:03:56;7.10;;;2.40;;
52456;SDS011;38369;52.840;7.082;2023-07-13T10:06:23;7.68;;;2.72;;
52456;SDS011;38369;52.840;7.082;2023-07-13T10:08:49;4.07;;;2.33;;
52456;SDS011;38369;52.840;7.082;2023-07-13T10:13:49;6.03;;;2.35;;
52456;SDS011;38369;52.840;7.082;2023-07-13T10:16:15;3.90;;;2.17;;
52456;SDS011;38369;52.840;7.082;2023-07-13T10:18:46;4.18;;;2.20;;
52456;SDS011;38369;52.840;7.082;2023-07-13T10:21:18;4.60;;;2.70;;
52456;SDS011;38369;52.840;7.082;2023-07-13T10:23:53;2.88;;;1.75;;
52456;SDS011;38369;52.840;7.082;2023-07-13T10:26:25;2.45;;;1.45;;
52456;SDS011;38369;52.840;7.082;2023-07-13T10:28:53;9.20;;;2.03;;
52456;SDS011;38369;52.840;7.082;2023-07-13T10:31:20;2.72;;;1.45;;
52456;SDS011;38369;52.840;7.082;2023-07-13T10:33:47;2.15;;;1.42;;
52456;SDS011;38369;52.840;7.082;2023-07-13T10:36:17;3.50;;;1.83;;
52456;SDS011;38369;52.840;7.082;2023-07-13T10:38:43;2.72;;;1.55;;
52456;SDS011;38369;52.840;7.082;2023-07-13T10:41:12;3.92;;;2.00;;
52456;SDS011;38369;52.840;7.082;2023-07-13T10:46:07;3.63;;;1.80;;
52456;SDS011;38369;52.840;7.082;2023-07-13T10:48:34;2.05;;;1.38;;
52456;SDS011;38369;52.840;7.082;2023-07-13T10:51:02;3.65;;;1.85;;
52456;SDS011;38369;52.840;7.082;2023-07-13T10:53:31;3.22;;;1.75;;
52456;SDS011;38369;52.840;7.082;2023-07-13T10:55:59;3.08;;;1.98;;
52456;SDS011;38369;52.840;7.082;2023-07-13T11:03:34;7.85;;;3.15;;
52456;SDS011;38369;52.840;7.082;2023-07-13T11:06:05;4.50;;;3.20;;
52456;SDS011;38369;52.840;7.082;2023-07-13T11:08:35;6.20;;;3.08;;
52456;SDS011;38369;52.840;7.082;2023-07-13T11:11:02;4.38;;;3.40;;
52456;SDS011;38369;52.840;7.082;2023-07-13T11:16:01;5.30;;;3.58;;
52456;SDS011;38369;52.840;7.082;2023-07-13T11:18:37;6.50;;;4.80;;
52456;SDS011;38369;52.840;7.082;2023-07-13T11:21:16;7.90;;;4.82;;
52456;SDS011;38369;52.840;7.082;2023-07-13T11:23:43;8.25;;;5.00;;
52456;SDS011;38369;52.840;7.082;2023-07-13T11:28:55;5.00;;;3.63;;
52456;SDS011;38369;52.840;7.082;2023-07-13T11:31:21;6.00;;;4.25;;
52456;SDS011;38369;52.840;7.082;2023-07-13T11:36:24;8.93;;;4.90;;
52456;SDS011;38369;52.840;7.082;2023-07-13T11:41:23;5.32;;;3.03;;
52456;SDS011;38369;52.840;7.082;2023-07-13T11:43:55;4.18;;;3.33;;
52456;SDS011;38369;52.840;7.082;2023-07-13T11:46:23;7.18;;;4.03;;
52456;SDS011;38369;52.840;7.082;2023-07-13T11:48:50;8.75;;;4.78;;
52456;SDS011;38369;52.840;7.082;2023-07-13T11:51:21;7.43;;;4.60;;
52456;SDS011;38369;52.840;7.082;2023-07-13T11:53:48;11.25;;;5.60;;
52456;SDS011;38369;52.840;7.082;2023-07-13T11:56:15;2.70;;;1.77;;
52456;SDS011;38369;52.840;7.082;2023-07-13T11:58:41;3.17;;;2.00;;
52456;SDS011;38369;52.840;7.082;2023-07-13T12:01:10;2.17;;;1.63;;
52456;SDS011;38369;52.840;7.082;2023-07-13T12:03:41;2.90;;;2.08;;
52456;SDS011;38369;52.840;7.082;2023-07-13T12:06:19;4.05;;;2.45;;
52456;SDS011;38369;52.840;7.082;2023-07-13T12:08:47;5.55;;;2.47;;
52456;SDS011;38369;52.840;7.082;2023-07-13T12:11:17;4.75;;;2.60;;
52456;SDS011;38369;52.840;7.082;2023-07-13T12:13:43;2.85;;;2.25;;
52456;SDS011;38369;52.840;7.082;2023-07-13T12:16:29;3.72;;;2.30;;
52456;SDS011;38369;52.840;7.082;2023-07-13T12:18:57;5.13;;;2.20;;
52456;SDS011;38369;52.840;7.082;2023-07-13T12:21:38;4.75;;;2.05;;
52456;SDS011;38369;52.840;7.082;2023-07-13T12:24:05;4.85;;;2.55;;
52456;SDS011;38369;52.840;7.082;2023-07-13T12:26:39;3.40;;;2.92;;
52456;SDS011;38369;52.840;7.082;2023-07-13T12:29:06;4.78;;;2.72;;
52456;SDS011;38369;52.840;7.082;2023-07-13T12:31:37;3.65;;;2.85;;
52456;SDS011;38369;52.840;7.082;2023-07-13T12:36:37;5.25;;;2.40;;
52456;SDS011;38369;52.840;7.082;2023-07-13T12:39:09;4.78;;;2.72;;
52456;SDS011;38369;52.840;7.082;2023-07-13T12:41:37;3.95;;;2.60;;
52456;SDS011;38369;52.840;7.082;2023-07-13T12:44:03;5.22;;;3.22;;
52456;SDS011;38369;52.840;7.082;2023-07-13T12:46:30;6.13;;;2.45;;
52456;SDS011;38369;52.840;7.082;2023-07-13T12:48:57;14.52;;;3.50;;
52456;SDS011;38369;52.840;7.082;2023-07-13T12:51:24;7.97;;;3.33;;
52456;SDS011;38369;52.840;7.082;2023-07-13T12:53:55;3.97;;;2.72;;
52456;SDS011;38369;52.840;7.082;2023-07-13T12:56:23;4.25;;;2.20;;
52456;SDS011;38369;52.840;7.082;2023-07-13T12:58:54;7.40;;;2.45;;
52456;SDS011;38369;52.840;7.082;2023-07-13T13:01:21;6.05;;;2.90;;
52456;SDS011;38369;52.840;7.082;2023-07-13T13:03:51;5.30;;;2.75;;
52456;SDS011;38369;52.840;7.082;2023-07-13T13:08:48;10.88;;;3.05;;
52456;SDS011;38369;52.840;7.082;2023-07-13T13:11:15;4.47;;;2.67;;
52456;SDS011;38369;52.840;7.082;2023-07-13T13:13:42;5.63;;;2.72;;
52456;SDS011;38369;52.840;7.082;2023-07-13T13:16:30;4.10;;;2.53;;
52456;SDS011;38369;52.840;7.082;2023-07-13T13:18:57;4.57;;;2.55;;
52456;SDS011;38369;52.840;7.082;2023-07-13T13:21:25;6.90;;;3.08;;
52456;SDS011;38369;52.840;7.082;2023-07-13T13:23:51;5.43;;;2.97;;
52456;SDS011;38369;52.840;7.082;2023-07-13T13:26:18;7.13;;;3.13;;
52456;SDS011;38369;52.840;7.082;2023-07-13T13:28:44;6.38;;;2.85;;
52456;SDS011;38369;52.840;7.082;2023-07-13T13:31:12;7.85;;;3.08;;
52456;SDS011;38369;52.840;7.082;2023-07-13T13:33:40;7.65;;;3.20;;
52456;SDS011;38369;52.840;7.082;2023-07-13T13:36:20;4.75;;;2.90;;
52456;SDS011;38369;52.840;7.082;2023-07-13T13:38:47;4.60;;;2.90;;
52456;SDS011;38369;52.840;7.082;2023-07-13T13:41:14;8.00;;;2.78;;
52456;SDS011;38369;52.840;7.082;2023-07-13T13:43:41;6.10;;;2.75;;
52456;SDS011;38369;52.840;7.082;2023-07-13T13:46:15;5.90;;;2.33;;
52456;SDS011;38369;52.840;7.082;2023-07-13T13:48:42;5.32;;;1.80;;
52456;SDS011;38369;52.840;7.082;2023-07-13T13:51:16;3.42;;;1.40;;
52456;SDS011;38369;52.840;7.082;2023-07-13T13:53:43;3.10;;;1.23;;
52456;SDS011;38369;52.840;7.082;2023-07-13T13:56:10;4.43;;;1.58;;
52456;SDS011;38369;52.840;7.082;2023-07-13T13:58:36;2.60;;;1.23;;
52456;SDS011;38369;52.840;7.082;2023-07-13T14:01:02;3.03;;;1.02;;
52456;SDS011;38369;52.840;7.082;2023-07-13T14:03:33;6.45;;;1.40;;
52456;SDS011;38369;52.840;7.082;2023-07-13T14:05:59;3.78;;;1.40;;
52456;SDS011;38369;52.840;7.082;2023-07-13T14:08:25;3.90;;;1.50;;
52456;SDS011;38369;52.840;7.082;2023-07-13T14:10:52;5.45;;;1.83;;
52456;SDS011;38369;52.840;7.082;2023-07-13T14:13:25;4.60;;;1.80;;
52456;SDS011;38369;52.840;7.082;2023-07-13T14:15:54;3.08;;;1.30;;
52456;SDS011;38369;52.840;7.082;2023-07-13T14:18:21;5.43;;;1.48;;
52456;SDS011;38369;52.840;7.082;2023-07-13T14:20:48;4.38;;;1.23;;
52456;SDS011;38369;52.840;7.082;2023-07-13T14:23:17;9.40;;;1.95;;
52456;SDS011;38369;52.840;7.082;2023-07-13T14:25:43;3.63;;;1.23;;
52456;SDS011;38369;52.840;7.082;2023-07-13T14:28:23;4.47;;;1.52;;
52456;SDS011;38369;52.840;7.082;2023-07-13T14:30:50;3.42;;;1.10;;
52456;SDS011;38369;52.840;7.082;2023-07-13T14:33:16;4.60;;;1.23;;
52456;SDS011;38369;52.840;7.082;2023-07-13T14:35:42;3.50;;;1.33;;
52456;SDS011;38369;52.840;7.082;2023-07-13T14:38:17;2.88;;;1.60;;
52456;SDS011;38369;52.840;7.082;2023-07-13T14:40:43;4.30;;;1.30;;
52456;SDS011;38369;52.840;7.082;2023-07-13T14:43:13;3.85;;;1.45;;
52456;SDS011;38369;52.840;7.082;2023-07-13T14:45:40;7.18;;;1.40;;
52456;SDS011;38369;52.840;7.082;2023-07-13T14:48:13;1.75;;;1.00;;
52456;SDS011;38369;52.840;7.082;2023-07-13T14:50:39;5.45;;;1.33;;
52456;SDS011;38369;52.840;7.082;2023-07-13T14:53:09;3.97;;;1.23;;
52456;SDS011;38369;52.840;7.082;2023-07-13T14:55:35;4.70;;;1.83;;
52456;SDS011;38369;52.840;7.082;2023-07-13T14:58:01;4.10;;;1.48;;
52456;SDS011;38369;52.840;7.082;2023-07-13T15:00:27;3.22;;;1.10;;
52456;SDS011;38369;52.840;7.082;2023-07-13T15:02:55;2.97;;;1.30;;
52456;SDS011;38369;52.840;7.082;2023-07-13T15:05:30;4.55;;;1.30;;
52456;SDS011;38369;52.840;7.082;2023-07-13T15:07:57;3.55;;;1.40;;
52456;SDS011;38369;52.840;7.082;2023-07-13T15:10:25;2.67;;;1.20;;
52456;SDS011;38369;52.840;7.082;2023-07-13T15:12:51;2.85;;;1.30;;
52456;SDS011;38369;52.840;7.082;2023-07-13T15:15:18;2.53;;;1.08;;
52456;SDS011;38369;52.840;7.082;2023-07-13T15:17:45;3.00;;;1.27;;
52456;SDS011;38369;52.840;7.082;2023-07-13T15:22:45;4.78;;;1.55;;
52456;SDS011;38369;52.840;7.082;2023-07-13T15:25:16;2.13;;;1.08;;